sensor_id;sensor_type;location;lat;lon;timestamp;P1;durP1;ratioP1;P2;durP2;ratioP2
9310;SDS011;4694;52.464;13.480;2023-03-16T06:41:19;9.77;;;3.58;;
9310;SDS011;4694;52.464;13.480;2023-03-16T06:43:46;10.15;;;2.85;;
9310;SDS011;4694;52.464;13.480;2023-03-16T06:46:13;12.48;;;2.78;;
9310;SDS011;4694;52.464;13.480;2023-03-16T06:48:40;6.22;;;2.78;;
9310;SDS011;4694;52.464;13.480;2023-03-16T06:51:07;5.95;;;2.40;;
9310;SDS011;4694;52.464;13.480;2023-03-16T06:53:34;6.88;;;4.22;;
9310;SDS011;4694;52.464;13.480;2023-03-16T06:56:01;6.30;;;3.25;;
9310;SDS011;4694;52.464;13.480;2023-03-16T06:58:31;8.88;;;3.75;;
9310;SDS011;4694;52.464;13.480;2023-03-16T07:00:59;7.68;;;4.05;;
9310;SDS011;4694;52.464;13.480;2023-03-16T07:03:27;11.05;;;2.38;;
9310;SDS011;4694;52.464;13.480;2023-03-16T07:05:55;5.78;;;2.88;;
9310;SDS011;4694;52.464;13.480;2023-03-16T07:08:22;5.75;;;2.78;;
9310;SDS011;4694;52.464;13.480;2023-03-16T07:10:49;9.27;;;2.17;;
9310;SDS011;4694;52.464;13.480;2023-03-16T07:13:16;6.57;;;2.15;;
9310;SDS011;4694;52.464;13.480;2023-03-16T07:15:45;5.95;;;2.35;;
9310;SDS011;4694;52.464;13.480;2023-03-16T07:18:12;6.13;;;2.63;;
9310;SDS011;4694;52.464;13.480;2023-03-16T07:20:39;13.68;;;1.98;;
9310;SDS011;4694;52.464;13.480;2023-03-16T07:23:06;6.07;;;2.00;;
9310;SDS011;4694;52.464;13.480;2023-03-16T07:25:33;8.73;;;2.22;;
9310;SDS011;4694;52.464;13.480;2023-03-16T07:28:00;4.50;;;1.83;;
9310;SDS011;4694;52.464;13.480;2023-03-16T07:30:27;7.80;;;1.92;;
9310;SDS011;4694;52.464;13.480;2023-03-16T07:32:56;3.72;;;2.85;;
9310;SDS011;4694;52.464;13.480;2023-03-16T07:35:23;2.97;;;1.40;;
9310;SDS011;4694;52.464;13.480;2023-03-16T07:37:50;9.38;;;2.20;;
9310;SDS011;4694;52.464;13.480;2023-03-16T07:40:18;5.30;;;2.10;;
9310;SDS011;4694;52.464;13.480;2023-03-16T07:42:45;8.85;;;2.85;;
9310;SDS011;4694;52.464;13.480;2023-03-16T07:45:12;6.70;;;2.47;;
9310;SDS011;4694;52.464;13.480;2023-03-16T07:47:41;3.88;;;1.95;;
9310;SDS011;4694;52.464;13.480;2023-03-16T07:50:11;3.88;;;1.70;;
9310;SDS011;4694;52.464;13.480;2023-03-16T07:52:39;6.57;;;1.75;;
9310;SDS011;4694;52.464;13.480;2023-03-16T07:55:07;8.48;;;2.38;;
9310;SDS011;4694;52.464;13.480;2023-03-16T07:57:34;5.40;;;1.95;;
9310;SDS011;4694;52.464;13.480;2023-03-16T08:00:03;4.88;;;2.05;;
9310;SDS011;4694;52.464;13.480;2023-03-16T08:02:31;7.18;;;2.25;;
9310;SDS011;4694;52.464;13.480;2023-03-16T08:04:58;6.05;;;1.60;;
9310;SDS011;4694;52.464;13.480;2023-03-16T08:07:27;8.18;;;1.77;;
9310;SDS011;4694;52.464;13.480;2023-03-16T08:09:55;8.48;;;2.58;;
9310;SDS011;4694;52.464;13.480;2023-03-16T08:12:22;4.50;;;2.25;;
9310;SDS011;4694;52.464;13.480;2023-03-16T08:14:49;7.45;;;2.42;;
9310;SDS011;4694;52.464;13.480;2023-03-16T08:17:16;8.40;;;2.88;;
9310;SDS011;4694;52.464;13.480;2023-03-16T08:19:44;3.42;;;1.80;;
9310;SDS011;4694;52.464;13.480;2023-03-16T08:22:11;3.33;;;2.20;;
9310;SDS011;4694;52.464;13.480;2023-03-16T08:24:40;4.88;;;2.03;;
9310;SDS011;4694;52.464;13.480;2023-03-16T08:27:07;5.72;;;1.65;;
9310;SDS011;4694;52.464;13.480;2023-03-16T08:29:35;8.70;;;2.10;;
9310;SDS011;4694;52.464;13.480;2023-03-16T08:32:02;8.30;;;2.50;;
9310;SDS011;4694;52.464;13.480;2023-03-16T08:34:29;5.68;;;2.05;;
9310;SDS011;4694;52.464;13.480;2023-03-16T08:36:56;7.72;;;2.05;;
9310;SDS011;4694;52.464;13.480;2023-03-16T08:39:23;2.80;;;1.30;;
9310;SDS011;4694;52.464;13.480;2023-03-16T08:41:52;5.13;;;2.08;;
9310;SDS011;4694;52.464;13.480;2023-03-16T08:44:20;10.02;;;2.35;;
9310;SDS011;4694;52.464;13.480;2023-03-16T08:46:49;6.53;;;2.70;;
9310;SDS011;4694;52.464;13.480;2023-03-16T08:49:16;3.45;;;1.48;;
9310;SDS011;4694;52.464;13.480;2023-03-16T08:51:46;5.00;;;1.52;;
9310;SDS011;4694;52.464;13.480;2023-03-16T08:54:12;4.45;;;1.58;;
9310;SDS011;4694;52.464;13.480;2023-03-16T08:56:41;6.43;;;2.65;;
9310;SDS011;4694;52.464;13.480;2023-03-16T08:59:09;8.57;;;1.90;;
9310;SDS011;4694;52.464;13.480;2023-03-16T09:01:37;3.53;;;1.05;;
9310;SDS011;4694;52.464;13.480;2023-03-16T09:04:05;6.00;;;1.67;;
9310;SDS011;4694;52.464;13.480;2023-03-16T09:06:32;5.45;;;1.58;;
9310;SDS011;4694;52.464;13.480;2023-03-16T09:09:00;6.32;;;2.83;;
9310;SDS011;4694;52.464;13.480;2023-03-16T09:11:28;7.90;;;3.03;;
9310;SDS011;4694;52.464;13.480;2023-03-16T09:13:57;9.48;;;1.50;;
9310;SDS011;4694;52.464;13.480;2023-03-16T09:16:26;8.48;;;1.20;;
9310;SDS011;4694;52.464;13.480;2023-03-16T09:18:54;4.03;;;1.93;;
9310;SDS011;4694;52.464;13.480;2023-03-16T09:21:22;3.20;;;0.93;;
9310;SDS011;4694;52.464;13.480;2023-03-16T09:23:49;4.20;;;1.13;;
9310;SDS011;4694;52.464;13.480;2023-03-16T09:26:16;6.18;;;1.20;;
9310;SDS011;4694;52.464;13.480;2023-03-16T09:28:44;5.18;;;0.95;;
9310;SDS011;4694;52.464;13.480;2023-03-16T09:31:14;4.00;;;1.10;;
9310;SDS011;4694;52.464;13.480;2023-03-16T09:33:43;3.97;;;1.67;;
9310;SDS011;4694;52.464;13.480;2023-03-16T09:36:10;3.95;;;1.33;;
9310;SDS011;4694;52.464;13.480;2023-03-16T09:38:37;3.00;;;0.90;;
9310;SDS011;4694;52.464;13.480;2023-03-16T09:41:06;11.32;;;1.67;;
9310;SDS011;4694;52.464;13.480;2023-03-16T09:43:42;2.25;;;1.00;;
9310;SDS011;4694;52.464;13.480;2023-03-16T09:46:13;8.13;;;1.70;;
9310;SDS011;4694;52.464;13.480;2023-03-16T09:48:42;3.58;;;1.20;;
9310;SDS011;4694;52.464;13.480;2023-03-16T09:51:12;5.43;;;1.00;;
9310;SDS011;4694;52.464;13.480;2023-03-16T09:53:42;4.35;;;1.17;;
9310;SDS011;4694;52.464;13.480;2023-03-16T09:56:10;4.70;;;0.95;;
9310;SDS011;4694;52.464;13.480;2023-03-16T09:58:38;5.55;;;0.93;;
9310;SDS011;4694;52.464;13.480;2023-03-16T10:01:08;2.30;;;1.25;;
9310;SDS011;4694;52.464;13.480;2023-03-16T10:04:00;5.47;;;1.33;;
9310;SDS011;4694;52.464;13.480;2023-03-16T10:06:31;6.55;;;1.10;;
9310;SDS011;4694;52.464;13.480;2023-03-16T10:09:03;4.38;;;0.75;;
9310;SDS011;4694;52.464;13.480;2023-03-16T10:11:32;7.15;;;2.15;;
9310;SDS011;4694;52.464;13.480;2023-03-16T10:14:02;2.00;;;0.80;;
9310;SDS011;4694;52.464;13.480;2023-03-16T10:16:34;3.33;;;1.05;;
9310;SDS011;4694;52.464;13.480;2023-03-16T10:19:07;4.28;;;0.80;;
9310;SDS011;4694;52.464;13.480;2023-03-16T10:21:37;3.70;;;1.33;;
9310;SDS011;4694;52.464;13.480;2023-03-16T10:24:05;6.22;;;1.38;;
9310;SDS011;4694;52.464;13.480;2023-03-16T10:26:39;4.50;;;1.30;;
9310;SDS011;4694;52.464;13.480;2023-03-16T10:29:09;4.18;;;1.42;;
9310;SDS011;4694;52.464;13.480;2023-03-16T10:31:39;1.93;;;0.83;;
9310;SDS011;4694;52.464;13.480;2023-03-16T10:34:08;3.10;;;1.20;;
9310;SDS011;4694;52.464;13.480;2023-03-16T10:36:36;2.58;;;0.65;;
9310;SDS011;4694;52.464;13.480;2023-03-16T10:39:04;4.40;;;1.05;;
9310;SDS011;4694;52.464;13.480;2023-03-16T10:41:32;4.07;;;0.85;;
9310;SDS011;4694;52.464;13.480;2023-03-16T10:44:01;3.50;;;0.98;;
9310;SDS011;4694;52.464;13.480;2023-03-16T10:46:35;3.72;;;0.90;;
9310;SDS011;4694;52.464;13.480;2023-03-16T10:49:02;4.60;;;1.25;;
9310;SDS011;4694;52.464;13.480;2023-03-16T10:51:31;2.45;;;0.90;;
9310;SDS011;4694;52.464;13.480;2023-03-16T10:54:03;1.75;;;1.35;;
9310;SDS011;4694;52.464;13.480;2023-03-16T10:56:34;5.10;;;0.85;;
9310;SDS011;4694;52.464;13.480;2023-03-16T10:59:11;3.75;;;0.82;;
9310;SDS011;4694;52.464;13.480;2023-03-16T11:01:42;3.33;;;0.80;;
9310;SDS011;4694;52.464;13.480;2023-03-16T11:04:11;1.88;;;0.63;;
9310;SDS011;4694;52.464;13.480;2023-03-16T11:06:45;1.97;;;1.23;;
9310;SDS011;4694;52.464;13.480;2023-03-16T11:09:13;3.28;;;1.00;;
9310;SDS011;4694;52.464;13.480;2023-03-16T11:11:45;4.95;;;1.50;;
9310;SDS011;4694;52.464;13.480;2023-03-16T11:14:17;3.92;;;1.42;;
9310;SDS011;4694;52.464;13.480;2023-03-16T11:16:45;3.40;;;0.90;;
9310;SDS011;4694;52.464;13.480;2023-03-16T11:19:16;1.40;;;1.02;;
9310;SDS011;4694;52.464;13.480;2023-03-16T11:21:48;1.63;;;0.60;;
9310;SDS011;4694;52.464;13.480;2023-03-16T11:24:20;1.83;;;0.95;;
9310;SDS011;4694;52.464;13.480;2023-03-16T11:29:18;1.60;;;0.63;;
9310;SDS011;4694;52.464;13.480;2023-03-16T11:31:47;0.80;;;0.65;;
9310;SDS011;4694;52.464;13.480;2023-03-16T11:34:18;2.10;;;0.90;;
9310;SDS011;4694;52.464;13.480;2023-03-16T11:36:49;2.55;;;0.80;;
9310;SDS011;4694;52.464;13.480;2023-03-16T11:39:30;2.35;;;1.05;;
9310;SDS011;4694;52.464;13.480;2023-03-16T11:41:59;3.78;;;0.95;;
9310;SDS011;4694;52.464;13.480;2023-03-16T11:44:31;1.95;;;1.08;;
9310;SDS011;4694;52.464;13.480;2023-03-16T11:47:02;5.03;;;1.00;;
9310;SDS011;4694;52.464;13.480;2023-03-16T11:52:27;4.50;;;1.10;;
9310;SDS011;4694;52.464;13.480;2023-03-16T11:54:59;3.70;;;0.80;;
9310;SDS011;4694;52.464;13.480;2023-03-16T11:57:30;1.85;;;0.73;;
9310;SDS011;4694;52.464;13.480;2023-03-16T12:00:20;4.15;;;1.10;;
9310;SDS011;4694;52.464;13.480;2023-03-16T12:02:59;2.08;;;0.93;;
9310;SDS011;4694;52.464;13.480;2023-03-16T12:05:35;2.90;;;0.67;;
9310;SDS011;4694;52.464;13.480;2023-03-16T12:08:09;2.47;;;1.17;;
9310;SDS011;4694;52.464;13.480;2023-03-16T12:10:42;2.25;;;0.98;;
9310;SDS011;4694;52.464;13.480;2023-03-16T12:13:15;4.55;;;1.63;;
9310;SDS011;4694;52.464;13.480;2023-03-16T12:15:54;1.67;;;0.63;;
9310;SDS011;4694;52.464;13.480;2023-03-16T12:18:29;2.72;;;0.57;;
9310;SDS011;4694;52.464;13.480;2023-03-16T12:21:01;1.90;;;0.50;;
9310;SDS011;4694;52.464;13.480;2023-03-16T12:23:32;6.80;;;2.25;;
9310;SDS011;4694;52.464;13.480;2023-03-16T12:26:00;3.10;;;0.50;;
9310;SDS011;4694;52.464;13.480;2023-03-16T12:28:28;3.00;;;0.85;;
9310;SDS011;4694;52.464;13.480;2023-03-16T12:31:03;1.98;;;1.00;;
9310;SDS011;4694;52.464;13.480;2023-03-16T12:33:36;5.43;;;1.65;;
9310;SDS011;4694;52.464;13.480;2023-03-16T12:36:13;1.27;;;0.50;;
9310;SDS011;4694;52.464;13.480;2023-03-16T12:38:45;2.00;;;0.77;;
9310;SDS011;4694;52.464;13.480;2023-03-16T12:41:18;3.22;;;0.80;;
9310;SDS011;4694;52.464;13.480;2023-03-16T12:43:51;1.50;;;0.50;;
9310;SDS011;4694;52.464;13.480;2023-03-16T12:46:26;1.23;;;0.50;;
9310;SDS011;4694;52.464;13.480;2023-03-16T12:48:54;3.10;;;0.93;;
9310;SDS011;4694;52.464;13.480;2023-03-16T12:51:30;1.63;;;0.57;;
9310;SDS011;4694;52.464;13.480;2023-03-16T12:53:59;1.95;;;0.90;;
9310;SDS011;4694;52.464;13.480;2023-03-16T12:56:28;3.85;;;1.20;;
9310;SDS011;4694;52.464;13.480;2023-03-16T12:58:56;2.00;;;1.05;;
9310;SDS011;4694;52.464;13.480;2023-03-16T13:01:25;1.00;;;0.60;;
9310;SDS011;4694;52.464;13.480;2023-03-16T13:03:57;3.03;;;1.02;;
9310;SDS011;4694;52.464;13.480;2023-03-16T13:06:28;3.53;;;0.98;;
9310;SDS011;4694;52.464;13.480;2023-03-16T13:09:06;2.72;;;0.80;;
9310;SDS011;4694;52.464;13.480;2023-03-16T13:11:41;2.22;;;0.60;;
9310;SDS011;4694;52.464;13.480;2023-03-16T13:14:12;1.23;;;0.65;;
9310;SDS011;4694;52.464;13.480;2023-03-16T13:16:43;2.03;;;0.55;;
9310;SDS011;4694;52.464;13.480;2023-03-16T13:19:30;2.30;;;0.82;;
9310;SDS011;4694;52.464;13.480;2023-03-16T13:22:04;1.42;;;0.60;;
9310;SDS011;4694;52.464;13.480;2023-03-16T13:24:43;0.90;;;0.50;;
9310;SDS011;4694;52.464;13.480;2023-03-16T13:27:19;3.20;;;0.75;;
9310;SDS011;4694;52.464;13.480;2023-03-16T13:29:53;1.05;;;0.40;;
9310;SDS011;4694;52.464;13.480;2023-03-16T13:32:21;0.70;;;0.45;;
9310;SDS011;4694;52.464;13.480;2023-03-16T13:34:56;2.70;;;0.73;;
9310;SDS011;4694;52.464;13.480;2023-03-16T13:37:23;4.18;;;1.35;;
9310;SDS011;4694;52.464;13.480;2023-03-16T13:39:54;1.33;;;0.60;;
9310;SDS011;4694;52.464;13.480;2023-03-16T13:42:23;1.02;;;0.57;;
9310;SDS011;4694;52.464;13.480;2023-03-16T13:44:53;4.35;;;0.70;;
9310;SDS011;4694;52.464;13.480;2023-03-16T13:47:22;1.52;;;0.77;;
9310;SDS011;4694;52.464;13.480;2023-03-16T13:49:54;1.75;;;1.10;;
9310;SDS011;4694;52.464;13.480;2023-03-16T13:52:23;5.88;;;1.02;;
9310;SDS011;4694;52.464;13.480;2023-03-16T13:54:50;3.67;;;1.43;;
9310;SDS011;4694;52.464;13.480;2023-03-16T13:57:20;3.08;;;0.88;;
9310;SDS011;4694;52.464;13.480;2023-03-16T13:59:50;2.10;;;0.90;;
9310;SDS011;4694;52.464;13.480;2023-03-16T14:02:23;3.65;;;0.60;;
9310;SDS011;4694;52.464;13.480;2023-03-16T14:04:50;0.88;;;0.85;;
9310;SDS011;4694;52.464;13.480;2023-03-16T14:07:18;0.50;;;0.40;;
9310;SDS011;4694;52.464;13.480;2023-03-16T14:09:45;2.95;;;0.55;;
9310;SDS011;4694;52.464;13.480;2023-03-16T14:12:14;1.00;;;0.40;;
9310;SDS011;4694;52.464;13.480;2023-03-16T14:14:44;2.78;;;0.55;;
9310;SDS011;4694;52.464;13.480;2023-03-16T14:17:15;1.33;;;0.50;;
9310;SDS011;4694;52.464;13.480;2023-03-16T14:19:44;2.58;;;0.80;;
9310;SDS011;4694;52.464;13.480;2023-03-16T14:22:15;1.73;;;0.47;;
9310;SDS011;4694;52.464;13.480;2023-03-16T14:24:52;2.92;;;0.85;;
9310;SDS011;4694;52.464;13.480;2023-03-16T14:27:21;1.55;;;0.38;;
9310;SDS011;4694;52.464;13.480;2023-03-16T14:29:55;1.42;;;0.50;;
9310;SDS011;4694;52.464;13.480;2023-03-16T14:32:25;4.32;;;0.60;;
9310;SDS011;4694;52.464;13.480;2023-03-16T14:34:59;0.80;;;0.38;;
9310;SDS011;4694;52.464;13.480;2023-03-16T14:37:33;2.15;;;0.55;;
9310;SDS011;4694;52.464;13.480;2023-03-16T14:40:01;1.20;;;0.50;;
9310;SDS011;4694;52.464;13.480;2023-03-16T14:42:30;2.38;;;0.63;;
9310;SDS011;4694;52.464;13.480;2023-03-16T14:44:59;4.22;;;0.50;;
9310;SDS011;4694;52.464;13.480;2023-03-16T14:47:27;1.13;;;0.30;;
9310;SDS011;4694;52.464;13.480;2023-03-16T14:49:56;3.05;;;0.43;;
9310;SDS011;4694;52.464;13.480;2023-03-16T14:52:26;1.58;;;0.63;;
9310;SDS011;4694;52.464;13.480;2023-03-16T14:54:55;1.92;;;0.60;;
9310;SDS011;4694;52.464;13.480;2023-03-16T14:57:23;1.52;;;0.40;;
9310;SDS011;4694;52.464;13.480;2023-03-16T14:59:51;1.42;;;0.88;;
9310;SDS011;4694;52.464;13.480;2023-03-16T15:02:21;2.60;;;0.60;;
9310;SDS011;4694;52.464;13.480;2023-03-16T15:04:49;1.33;;;0.50;;
9310;SDS011;4694;52.464;13.480;2023-03-16T15:07:20;1.02;;;0.40;;
9310;SDS011;4694;52.464;13.480;2023-03-16T15:09:49;1.45;;;0.38;;
9310;SDS011;4694;52.464;13.480;2023-03-16T15:12:16;3.75;;;1.23;;
9310;SDS011;4694;52.464;13.480;2023-03-16T15:14:44;1.42;;;0.50;;
9310;SDS011;4694;52.464;13.480;2023-03-16T15:17:31;1.73;;;0.45;;
9310;SDS011;4694;52.464;13.480;2023-03-16T15:19:58;0.73;;;0.43;;
9310;SDS011;4694;52.464;13.480;2023-03-16T15:22:26;1.88;;;0.40;;
9310;SDS011;4694;52.464;13.480;2023-03-16T15:24:54;3.65;;;0.57;;
9310;SDS011;4694;52.464;13.480;2023-03-16T15:27:24;2.80;;;0.60;;
9310;SDS011;4694;52.464;13.480;2023-03-16T15:29:52;1.08;;;0.40;;
9310;SDS011;4694;52.464;13.480;2023-03-16T15:32:20;0.90;;;0.40;;
9310;SDS011;4694;52.464;13.480;2023-03-16T15:34:49;1.17;;;0.20;;
9310;SDS011;4694;52.464;13.480;2023-03-16T15:37:16;4.50;;;0.50;;
9310;SDS011;4694;52.464;13.480;2023-03-16T15:39:45;2.45;;;0.50;;
9310;SDS011;4694;52.464;13.480;2023-03-16T15:42:13;0.70;;;0.40;;
9310;SDS011;4694;52.464;13.480;2023-03-16T15:44:41;4.65;;;2.08;;
9310;SDS011;4694;52.464;13.480;2023-03-16T15:47:08;1.13;;;0.30;;
9310;SDS011;4694;52.464;13.480;2023-03-16T15:49:35;1.05;;;0.38;;
9310;SDS011;4694;52.464;13.480;2023-03-16T15:52:04;1.80;;;0.40;;
9310;SDS011;4694;52.464;13.480;2023-03-16T15:54:32;3.00;;;0.73;;
9310;SDS011;4694;52.464;13.480;2023-03-16T15:57:00;2.20;;;0.88;;
9310;SDS011;4694;52.464;13.480;2023-03-16T15:59:29;1.77;;;0.30;;
9310;SDS011;4694;52.464;13.480;2023-03-16T16:01:57;3.00;;;0.40;;
9310;SDS011;4694;52.464;13.480;2023-03-16T16:04:25;0.63;;;0.50;;
9310;SDS011;4694;52.464;13.480;2023-03-16T16:06:52;2.80;;;0.40;;
9310;SDS011;4694;52.464;13.480;2023-03-16T16:09:22;1.15;;;0.30;;
9310;SDS011;4694;52.464;13.480;2023-03-16T16:11:49;1.30;;;0.82;;
9310;SDS011;4694;52.464;13.480;2023-03-16T16:14:18;0.90;;;0.40;;
9310;SDS011;4694;52.464;13.480;2023-03-16T16:16:47;1.52;;;0.43;;
9310;SDS011;4694;52.464;13.480;2023-03-16T16:19:15;3.97;;;0.60;;
9310;SDS011;4694;52.464;13.480;2023-03-16T16:21:42;2.10;;;0.40;;
9310;SDS011;4694;52.464;13.480;2023-03-16T16:24:11;1.02;;;0.30;;
9310;SDS011;4694;52.464;13.480;2023-03-16T16:26:41;2.80;;;1.58;;
9310;SDS011;4694;52.464;13.480;2023-03-16T16:29:10;1.00;;;0.45;;
9310;SDS011;4694;52.464;13.480;2023-03-16T16:31:38;3.70;;;0.40;;
9310;SDS011;4694;52.464;13.480;2023-03-16T16:34:07;0.50;;;0.28;;
9310;SDS011;4694;52.464;13.480;2023-03-16T16:36:37;1.48;;;0.50;;
9310;SDS011;4694;52.464;13.480;2023-03-16T16:39:04;1.17;;;0.63;;
9310;SDS011;4694;52.464;13.480;2023-03-16T16:41:32;1.73;;;0.55;;
9310;SDS011;4694;52.464;13.480;2023-03-16T16:44:02;5.57;;;0.45;;
9310;SDS011;4694;52.464;13.480;2023-03-16T16:46:34;5.30;;;0.40;;
9310;SDS011;4694;52.464;13.480;2023-03-16T16:51:30;0.80;;;0.40;;
9310;SDS011;4694;52.464;13.480;2023-03-16T16:53:57;1.13;;;0.98;;
9310;SDS011;4694;52.464;13.480;2023-03-16T16:56:26;3.17;;;0.82;;
9310;SDS011;4694;52.464;13.480;2023-03-16T16:58:53;4.03;;;0.70;;
9310;SDS011;4694;52.464;13.480;2023-03-16T17:01:24;2.17;;;0.40;;
9310;SDS011;4694;52.464;13.480;2023-03-16T17:03:52;2.10;;;0.68;;
9310;SDS011;4694;52.464;13.480;2023-03-16T17:06:19;4.15;;;1.08;;
9310;SDS011;4694;52.464;13.480;2023-03-16T17:08:46;4.65;;;0.50;;
9310;SDS011;4694;52.464;13.480;2023-03-16T17:11:15;2.05;;;0.40;;
9310;SDS011;4694;52.464;13.480;2023-03-16T17:13:43;0.75;;;0.60;;
9310;SDS011;4694;52.464;13.480;2023-03-16T17:16:12;2.95;;;0.70;;
9310;SDS011;4694;52.464;13.480;2023-03-16T17:18:42;3.20;;;0.88;;
9310;SDS011;4694;52.464;13.480;2023-03-16T17:21:10;0.85;;;0.40;;
9310;SDS011;4694;52.464;13.480;2023-03-16T17:23:38;3.40;;;0.60;;
9310;SDS011;4694;52.464;13.480;2023-03-16T17:26:09;4.93;;;1.63;;
9310;SDS011;4694;52.464;13.480;2023-03-16T17:28:38;1.88;;;0.40;;
9310;SDS011;4694;52.464;13.480;2023-03-16T17:31:07;4.97;;;1.70;;
9310;SDS011;4694;52.464;13.480;2023-03-16T17:33:36;5.70;;;1.30;;
9310;SDS011;4694;52.464;13.480;2023-03-16T17:36:04;3.22;;;0.57;;
9310;SDS011;4694;52.464;13.480;2023-03-16T17:38:32;2.13;;;0.70;;
9310;SDS011;4694;52.464;13.480;2023-03-16T17:40:59;1.98;;;0.50;;
9310;SDS011;4694;52.464;13.480;2023-03-16T17:43:27;1.73;;;0.70;;
9310;SDS011;4694;52.464;13.480;2023-03-16T17:45:56;1.88;;;0.50;;
9310;SDS011;4694;52.464;13.480;2023-03-16T17:48:23;4.50;;;0.90;;
9310;SDS011;4694;52.464;13.480;2023-03-16T17:50:50;1.60;;;0.60;;
9310;SDS011;4694;52.464;13.480;2023-03-16T17:53:18;8.18;;;1.02;;
9310;SDS011;4694;52.464;13.480;2023-03-16T17:55:46;3.42;;;0.77;;
9310;SDS011;4694;52.464;13.480;2023-03-16T17:58:21;11.20;;;1.67;;
9310;SDS011;4694;52.464;13.480;2023-03-16T18:00:50;1.83;;;0.60;;
9310;SDS011;4694;52.464;13.480;2023-03-16T18:03:18;2.53;;;0.85;;
9310;SDS011;4694;52.464;13.480;2023-03-16T18:05:45;4.55;;;1.00;;
9310;SDS011;4694;52.464;13.480;2023-03-16T18:08:14;3.60;;;1.58;;
9310;SDS011;4694;52.464;13.480;2023-03-16T18:10:43;3.15;;;1.60;;
9310;SDS011;4694;52.464;13.480;2023-03-16T18:13:15;3.72;;;2.15;;
9310;SDS011;4694;52.464;13.480;2023-03-16T18:15:43;5.25;;;1.60;;
9310;SDS011;4694;52.464;13.480;2023-03-16T18:18:12;4.85;;;1.27;;
9310;SDS011;4694;52.464;13.480;2023-03-16T18:20:41;3.28;;;0.80;;
9310;SDS011;4694;52.464;13.480;2023-03-16T18:23:11;2.25;;;1.10;;
9310;SDS011;4694;52.464;13.480;2023-03-16T18:28:08;2.88;;;1.27;;
9310;SDS011;4694;52.464;13.480;2023-03-16T18:30:36;5.90;;;1.63;;
9310;SDS011;4694;52.464;13.480;2023-03-16T18:33:04;3.90;;;0.93;;
9310;SDS011;4694;52.464;13.480;2023-03-16T18:35:32;3.90;;;0.80;;
9310;SDS011;4694;52.464;13.480;2023-03-16T18:37:59;2.85;;;0.70;;
9310;SDS011;4694;52.464;13.480;2023-03-16T18:40:27;3.20;;;1.50;;
9310;SDS011;4694;52.464;13.480;2023-03-16T18:42:55;4.45;;;1.10;;
9310;SDS011;4694;52.464;13.480;2023-03-16T18:45:24;7.55;;;0.90;;
9310;SDS011;4694;52.464;13.480;2023-03-16T18:47:52;2.50;;;0.40;;
9310;SDS011;4694;52.464;13.480;2023-03-16T18:50:21;2.80;;;0.98;;
9310;SDS011;4694;52.464;13.480;2023-03-16T18:52:49;3.00;;;0.85;;
9310;SDS011;4694;52.464;13.480;2023-03-16T18:55:17;2.53;;;0.75;;
9310;SDS011;4694;52.464;13.480;2023-03-16T18:57:45;2.25;;;0.88;;
9310;SDS011;4694;52.464;13.480;2023-03-16T19:00:16;1.98;;;0.80;;
9310;SDS011;4694;52.464;13.480;2023-03-16T19:02:50;2.35;;;0.77;;
9310;SDS011;4694;52.464;13.480;2023-03-16T19:05:19;3.70;;;1.20;;
9310;SDS011;4694;52.464;13.480;2023-03-16T19:07:48;4.32;;;2.38;;
9310;SDS011;4694;52.464;13.480;2023-03-16T19:10:18;3.30;;;1.33;;
9310;SDS011;4694;52.464;13.480;2023-03-16T19:12:46;4.28;;;0.95;;
9310;SDS011;4694;52.464;13.480;2023-03-16T19:15:15;2.15;;;0.80;;
9310;SDS011;4694;52.464;13.480;2023-03-16T19:17:45;4.40;;;0.88;;
9310;SDS011;4694;52.464;13.480;2023-03-16T19:20:13;3.30;;;1.00;;
9310;SDS011;4694;52.464;13.480;2023-03-16T19:22:40;4.60;;;1.40;;
9310;SDS011;4694;52.464;13.480;2023-03-16T19:25:13;6.80;;;2.35;;
9310;SDS011;4694;52.464;13.480;2023-03-16T19:27:41;5.57;;;1.58;;
9310;SDS011;4694;52.464;13.480;2023-03-16T19:30:10;3.83;;;1.58;;
9310;SDS011;4694;52.464;13.480;2023-03-16T19:32:45;4.72;;;0.70;;
9310;SDS011;4694;52.464;13.480;2023-03-16T19:35:12;4.32;;;1.20;;
9310;SDS011;4694;52.464;13.480;2023-03-16T19:37:40;4.47;;;0.93;;
9310;SDS011;4694;52.464;13.480;2023-03-16T19:40:08;2.00;;;0.75;;
9310;SDS011;4694;52.464;13.480;2023-03-16T19:42:35;6.75;;;0.90;;
9310;SDS011;4694;52.464;13.480;2023-03-16T19:45:05;3.95;;;1.52;;
9310;SDS011;4694;52.464;13.480;2023-03-16T19:47:32;3.78;;;0.98;;
9310;SDS011;4694;52.464;13.480;2023-03-16T19:50:04;8.43;;;2.33;;
9310;SDS011;4694;52.464;13.480;2023-03-16T19:52:32;2.40;;;1.10;;
9310;SDS011;4694;52.464;13.480;2023-03-16T19:54:59;2.13;;;0.70;;
9310;SDS011;4694;52.464;13.480;2023-03-16T19:57:26;2.00;;;0.77;;
9310;SDS011;4694;52.464;13.480;2023-03-16T19:59:55;4.72;;;2.72;;
9310;SDS011;4694;52.464;13.480;2023-03-16T20:02:24;2.88;;;0.75;;
9310;SDS011;4694;52.464;13.480;2023-03-16T20:04:51;5.25;;;1.27;;
9310;SDS011;4694;52.464;13.480;2023-03-16T20:07:20;2.92;;;1.05;;
9310;SDS011;4694;52.464;13.480;2023-03-16T20:09:47;4.10;;;1.40;;
9310;SDS011;4694;52.464;13.480;2023-03-16T20:12:19;3.55;;;1.95;;
9310;SDS011;4694;52.464;13.480;2023-03-16T20:14:47;2.25;;;1.35;;
9310;SDS011;4694;52.464;13.480;2023-03-16T20:17:15;6.00;;;1.20;;
9310;SDS011;4694;52.464;13.480;2023-03-16T20:19:46;2.75;;;1.65;;
9310;SDS011;4694;52.464;13.480;2023-03-16T20:22:14;2.78;;;1.55;;
